RUP weather

Rupsi India Airport
Assam, India

Public forecast

Using degrees Celsius for public forecast. Weather courtesy of forecast.io.

Closest aviation weather report (METAR) to Rupsi India Airport

Report is more than 6 hours old.

Closest report is Cooch Behar Airport, 26.5 nm (49.0 km) WNW. Retrieved 2016/12/17 06:00 UTC (3 years ago):

VECO 170600Z 07002KT 4500 HZ NSC 26/16 Q1014

Closest aviation forecast (TAF) to Rupsi India Airport

Forecast is more than 12 hours old.

Closest forecast is Lokpriya Gopinath Bordoloi International Airport, 90.4 nm (167.4 km) E. Retrieved 2016/03/24 00:45 UTC (4 years ago):

TAF VEGT 242300Z 2500/2606 00000KT 2000 BR FEW020 BECMG 2503/2506 05008KT 4000 HZ BECMG 2506/2509 5000 HZ BECMG 2512/2514 00000KT 4000 HZ FEW020 SCT100 BECMG 2515/2518 2500 HZ BECMG 2603/2606 05008KT 4000 HZ FEW020=